Time;durP1;ratioP1;P1;durP2;ratioP2;P2;SDS_P1;SDS_P2;PMS_P1;PMS_P2;Temp;Humidity;BMP_temperature;BMP_pressure;BME280_temperature;BME280_humidity;BME280_pressure;Samples;Min_cycle;Max_cycle;Signal;HPM_P1;HPM_P2
2022/01/26 00:06:07;;;;;;;122.80;49.92;;;4.70;99.90;;;;;;5034735;28;20040;-75
2022/01/26 00:08:32;;;;;;;129.80;52.10;;;4.70;99.90;;;;;;5016574;28;20046;-75
2022/01/26 00:10:58;;;;;;;127.25;50.65;;;4.70;99.90;;;;;;5014074;28;20152;-75
2022/01/26 00:13:24;;;;;;;130.18;50.58;;;4.70;99.90;;;;;;5014336;28;20057;-75
2022/01/26 00:15:50;;;;;;;133.60;51.42;;;4.70;99.90;;;;;;5014990;28;20494;-75
2022/01/26 00:18:18;;;;;;;132.07;52.22;;;4.70;99.90;;;;;;5013945;28;20486;-75
2022/01/26 00:20:53;;;;;;;129.15;51.03;;;4.70;99.90;;;;;;5031724;28;20018;-75
2022/01/26 00:26:11;;;;;;;124.28;49.85;;;4.70;99.90;;;;;;5011944;28;20041;-75
2022/01/26 00:39:33;;;;;;;126.32;50.58;;;4.70;99.90;;;;;;5033222;28;20037;-75
2022/01/26 00:42:00;;;;;;;131.35;52.72;;;4.70;99.90;;;;;;5033040;28;20378;-75
2022/01/26 00:44:34;;;;;;;124.65;49.83;;;4.60;99.90;;;;;;5033372;28;20021;-75
2022/01/26 00:47:00;;;;;;;135.50;51.97;;;4.60;99.90;;;;;;5032762;28;20025;-75
2022/01/26 00:49:27;;;;;;;127.53;50.17;;;4.60;99.90;;;;;;5032965;28;20033;-75
2022/01/26 00:51:54;;;;;;;124.25;50.95;;;4.60;99.90;;;;;;5032839;28;20479;-75
2022/01/26 00:54:19;;;;;;;133.93;52.28;;;4.70;99.90;;;;;;5033358;28;20021;-75
2022/01/26 00:56:45;;;;;;;131.63;52.10;;;4.70;99.90;;;;;;5033443;28;20108;-75
2022/01/26 00:59:11;;;;;;;124.82;50.72;;;4.70;99.90;;;;;;5032558;28;20032;-74
2022/01/26 01:01:37;;;;;;;124.53;50.15;;;4.70;99.90;;;;;;5031872;28;20060;-75
2022/01/26 01:04:03;;;;;;;127.35;50.38;;;4.70;99.90;;;;;;5030934;28;20104;-75
2022/01/26 01:06:42;;;;;;;124.78;49.58;;;4.70;99.90;;;;;;5030571;28;20048;-75
2022/01/26 01:09:07;;;;;;;125.18;49.75;;;4.70;99.90;;;;;;5031312;28;20044;-75
2022/01/26 01:11:33;;;;;;;123.82;50.22;;;4.70;99.90;;;;;;5022397;28;20030;-75
2022/01/26 01:13:58;;;;;;;126.10;49.35;;;4.70;99.90;;;;;;5029012;28;20052;-75
2022/01/26 01:16:25;;;;;;;127.97;50.00;;;4.70;99.90;;;;;;5019264;28;20581;-75
2022/01/26 01:19:30;;;;;;;129.60;48.70;;;4.70;99.90;;;;;;5024898;28;20025;-75
2022/01/26 01:22:17;;;;;;;123.97;48.72;;;4.70;99.90;;;;;;5012083;28;20487;-75
2022/01/26 01:27:47;;;;;;;124.00;50.08;;;4.70;99.90;;;;;;5013357;28;20041;-75
2022/01/26 01:30:07;;;;;;;128.23;50.10;;;4.70;99.90;;;;;;5019872;28;20037;-75
2022/01/26 01:32:51;;;;;;;128.15;51.75;;;4.70;99.90;;;;;;5032396;28;20025;-75
2022/01/26 01:35:17;;;;;;;124.65;50.85;;;4.70;99.90;;;;;;5032154;28;20399;-75
2022/01/26 01:37:43;;;;;;;121.78;49.67;;;4.70;99.90;;;;;;5029381;28;20030;-75
2022/01/26 01:40:09;;;;;;;119.80;46.83;;;4.70;99.90;;;;;;5018735;28;20033;-75
2022/01/26 01:42:35;;;;;;;127.18;50.97;;;4.70;99.90;;;;;;5031184;28;20025;-75
2022/01/26 01:45:01;;;;;;;128.23;50.90;;;4.70;99.90;;;;;;5028500;28;20025;-75
2022/01/26 01:47:27;;;;;;;124.93;50.22;;;4.70;99.90;;;;;;5012254;28;20030;-75
2022/01/26 01:49:53;;;;;;;123.47;50.33;;;4.70;99.90;;;;;;5029806;28;20079;-75
2022/01/26 01:52:19;;;;;;;119.20;48.72;;;4.70;99.90;;;;;;5031784;28;20551;-75
2022/01/26 01:54:50;;;;;;;124.68;49.63;;;4.70;99.90;;;;;;5030413;28;20102;-75
2022/01/26 01:57:22;;;;;;;124.40;50.65;;;4.70;99.90;;;;;;5012181;28;20033;-75
2022/01/26 01:59:48;;;;;;;129.70;50.85;;;4.70;99.90;;;;;;5025089;28;20041;-75
2022/01/26 02:02:13;;;;;;;128.65;51.42;;;4.70;99.90;;;;;;5031500;28;20041;-75
2022/01/26 02:04:39;;;;;;;128.23;50.88;;;4.70;99.90;;;;;;5024810;28;20056;-75
2022/01/26 02:07:05;;;;;;;129.95;49.95;;;4.70;99.90;;;;;;5012147;28;20049;-75
2022/01/26 02:09:30;;;;;;;125.25;49.05;;;4.60;99.90;;;;;;5031003;28;20403;-75
2022/01/26 02:11:57;;;;;;;131.02;50.83;;;4.60;99.90;;;;;;5031059;28;20034;-75
2022/01/26 02:14:31;;;;;;;137.23;51.42;;;4.60;99.90;;;;;;5015907;28;20063;-75
2022/01/26 02:17:13;;;;;;;145.57;53.40;;;4.60;99.90;;;;;;5012247;28;20117;-75
2022/01/26 02:58:22;;;;;;;139.25;51.20;;;4.40;99.90;;;;;;5017931;28;20503;-75
2022/01/26 03:01:13;;;;;;;142.93;51.72;;;4.40;99.90;;;;;;5024805;28;20057;-75
2022/01/26 03:03:55;;;;;;;155.48;54.00;;;4.40;99.90;;;;;;5022993;28;20037;-74
2022/01/26 03:06:28;;;;;;;144.30;52.53;;;4.40;99.90;;;;;;5020911;28;20034;-75
2022/01/26 03:09:00;;;;;;;145.85;53.53;;;4.40;99.90;;;;;;5037612;28;20111;-75
2022/01/26 03:11:29;;;;;;;138.25;52.42;;;4.40;99.90;;;;;;5025107;28;20116;-74
2022/01/26 03:14:04;;;;;;;151.27;53.38;;;4.40;99.90;;;;;;5019438;28;20551;-75
2022/01/26 03:16:39;;;;;;;151.10;54.00;;;4.40;99.90;;;;;;5037055;28;20487;-75
2022/01/26 03:19:25;;;;;;;;;;;4.40;99.90;;;;;;5018893;28;20546;-75
2022/01/26 03:30:00;;;;;;;150.53;52.67;;;4.40;99.90;;;;;;5035208;28;20033;-75
2022/01/26 03:32:51;;;;;;;148.25;53.42;;;4.40;99.90;;;;;;5020060;28;20083;-75
2022/01/26 03:35:19;;;;;;;143.68;51.17;;;4.40;99.90;;;;;;5031996;28;20088;-75
2022/01/26 03:37:54;;;;;;;148.27;52.88;;;4.40;99.90;;;;;;5020359;28;20156;-75
2022/01/26 03:40:28;;;;;;;145.40;52.78;;;4.40;99.90;;;;;;5028831;28;20305;-74
2022/01/26 03:42:53;;;;;;;156.40;54.97;;;4.40;99.90;;;;;;5035666;28;20033;-75
2022/01/26 03:45:19;;;;;;;153.70;52.92;;;4.40;99.90;;;;;;5031868;28;20026;-75
2022/01/26 03:47:45;;;;;;;149.82;54.25;;;4.40;99.90;;;;;;5033876;28;20033;-75
2022/01/26 03:50:10;;;;;;;149.00;51.85;;;4.40;99.90;;;;;;5019555;28;20038;-75
2022/01/26 03:52:36;;;;;;;156.90;54.58;;;4.40;99.90;;;;;;5014168;28;20109;-75
2022/01/26 03:55:03;;;;;;;150.63;52.85;;;4.40;99.90;;;;;;5023531;28;20060;-75
2022/01/26 03:57:28;;;;;;;146.15;53.45;;;4.40;99.90;;;;;;5025152;28;20095;-74
2022/01/26 03:59:54;;;;;;;150.95;53.45;;;4.40;99.90;;;;;;5021198;28;20042;-74
2022/01/26 04:02:20;;;;;;;148.90;53.13;;;4.40;99.90;;;;;;5028633;28;20044;-75
2022/01/26 04:04:51;;;;;;;150.82;55.03;;;4.40;99.90;;;;;;5014225;28;20088;-74
2022/01/26 04:07:16;;;;;;;145.50;52.83;;;4.50;99.90;;;;;;5034339;28;20037;-75
2022/01/26 04:09:42;;;;;;;144.63;53.97;;;4.50;99.90;;;;;;5033318;28;20029;-75
2022/01/26 04:12:08;;;;;;;148.68;52.78;;;4.50;99.90;;;;;;5031896;28;20448;-74
2022/01/26 04:14:35;;;;;;;146.52;52.38;;;4.50;99.90;;;;;;5033853;28;20032;-75
2022/01/26 04:17:01;;;;;;;147.38;50.92;;;4.50;99.90;;;;;;5031788;28;20055;-75
2022/01/26 04:19:29;;;;;;;148.85;52.72;;;4.50;99.90;;;;;;5029819;28;20031;-75
2022/01/26 04:22:49;;;;;;;140.63;51.72;;;4.50;99.90;;;;;;5020502;28;20326;-74
2022/01/26 04:24:51;;;;;;;150.57;53.92;;;4.50;99.90;;;;;;5010924;28;20494;-75
2022/01/26 04:27:35;;;;;;;150.75;52.97;;;4.50;99.90;;;;;;5023848;28;20103;-75
2022/01/26 04:30:01;;;;;;;146.48;52.22;;;4.60;99.90;;;;;;5023943;28;20052;-76
2022/01/26 04:32:27;;;;;;;143.15;51.13;;;4.60;99.90;;;;;;5013946;28;20030;-74
2022/01/26 04:34:53;;;;;;;149.75;51.05;;;4.60;99.90;;;;;;5021852;28;20409;-75
2022/01/26 04:37:46;;;;;;;146.02;52.40;;;4.60;99.90;;;;;;5016569;28;20033;-75
2022/01/26 04:40:14;;;;;;;141.50;49.60;;;4.60;99.90;;;;;;5020238;28;20656;-75
2022/01/26 04:42:56;;;;;;;142.32;49.28;;;4.60;99.90;;;;;;5032802;28;20025;-75
2022/01/26 04:45:22;;;;;;;141.13;49.67;;;4.60;99.90;;;;;;5032881;28;20036;-75
2022/01/26 04:47:48;;;;;;;137.63;48.78;;;4.60;99.90;;;;;;5013443;28;20406;-75
2022/01/26 04:50:13;;;;;;;136.50;47.65;;;4.60;99.90;;;;;;5013515;28;20026;-75
2022/01/26 04:52:40;;;;;;;137.90;48.72;;;4.60;99.90;;;;;;5018777;28;20499;-75
2022/01/26 04:55:07;;;;;;;130.85;46.88;;;4.70;99.90;;;;;;5032186;28;20052;-75
2022/01/26 04:57:32;;;;;;;135.75;47.60;;;4.70;99.90;;;;;;5032011;28;20029;-75
2022/01/26 04:59:58;;;;;;;141.20;48.13;;;4.70;99.90;;;;;;5032115;28;20404;-75
2022/01/26 05:02:24;;;;;;;135.15;48.25;;;4.70;99.90;;;;;;5032360;28;20025;-75
2022/01/26 05:04:49;;;;;;;122.22;44.00;;;4.70;99.90;;;;;;5032351;28;20570;-75
2022/01/26 05:07:15;;;;;;;94.50;36.92;;;4.70;99.90;;;;;;5021441;28;20507;-75
2022/01/26 05:09:41;;;;;;;83.18;34.58;;;4.70;99.90;;;;;;5032373;28;20430;-74
2022/01/26 05:12:07;;;;;;;84.25;34.15;;;4.70;99.90;;;;;;5031931;28;20108;-74
2022/01/26 05:14:33;;;;;;;79.90;34.55;;;4.70;99.90;;;;;;5015545;28;20506;-75
2022/01/26 05:16:58;;;;;;;79.88;33.17;;;4.60;99.90;;;;;;5012885;28;20057;-74
2022/01/26 05:19:24;;;;;;;79.85;32.75;;;4.60;99.90;;;;;;5012380;28;20472;-75
2022/01/26 05:21:50;;;;;;;81.10;34.15;;;4.60;99.90;;;;;;5012535;28;20061;-75
2022/01/26 05:24:15;;;;;;;82.10;32.78;;;4.60;99.90;;;;;;5013408;28;20029;-75
2022/01/26 05:26:41;;;;;;;81.03;33.88;;;4.50;99.90;;;;;;5025215;28;20041;-74
2022/01/26 05:29:07;;;;;;;80.20;33.20;;;4.50;99.90;;;;;;5031563;28;20053;-75
2022/01/26 05:31:33;;;;;;;83.68;35.40;;;4.50;99.90;;;;;;5016019;28;20064;-74
2022/01/26 05:33:59;;;;;;;87.93;36.08;;;4.50;99.90;;;;;;5027353;28;20529;-75
2022/01/26 05:36:24;;;;;;;87.35;36.55;;;4.50;99.90;;;;;;5031214;28;20026;-75
2022/01/26 05:38:50;;;;;;;90.35;36.97;;;4.50;99.90;;;;;;5031466;28;20029;-74
2022/01/26 05:41:16;;;;;;;88.13;36.75;;;4.50;99.90;;;;;;5033260;28;20743;-74
2022/01/26 05:43:42;;;;;;;93.57;37.95;;;4.50;99.90;;;;;;5034299;28;20040;-75
2022/01/26 05:46:21;;;;;;;97.18;39.13;;;4.50;99.90;;;;;;5031764;28;20030;-75
2022/01/26 05:48:48;;;;;;;94.40;38.83;;;4.50;99.90;;;;;;5033900;28;20041;-75
2022/01/26 05:51:15;;;;;;;96.35;39.20;;;4.40;99.90;;;;;;5029684;28;20021;-75
2022/01/26 05:53:40;;;;;;;95.68;38.92;;;4.40;99.90;;;;;;5033836;28;20122;-75
2022/01/26 05:56:07;;;;;;;101.22;39.15;;;4.40;99.90;;;;;;5038126;28;20076;-75
2022/01/26 05:58:32;;;;;;;97.95;39.72;;;4.40;99.90;;;;;;5029097;28;20016;-75
2022/01/26 06:01:00;;;;;;;96.78;38.28;;;4.40;99.90;;;;;;5037989;28;20116;-75
2022/01/26 06:03:27;;;;;;;86.30;37.17;;;4.40;99.90;;;;;;5047725;28;20079;-75
2022/01/26 06:05:54;;;;;;;86.00;37.20;;;4.40;99.90;;;;;;5041793;28;20539;-75
2022/01/26 06:08:21;;;;;;;88.68;36.10;;;4.40;99.90;;;;;;5030661;28;20025;-75
2022/01/26 06:10:47;;;;;;;88.75;37.28;;;4.40;99.90;;;;;;5025003;28;20030;-75
2022/01/26 06:13:13;;;;;;;89.53;36.58;;;4.40;99.90;;;;;;5011122;28;20033;-75
2022/01/26 06:15:38;;;;;;;88.63;36.20;;;4.30;99.90;;;;;;5034599;28;20434;-75
2022/01/26 06:18:04;;;;;;;91.32;37.33;;;4.30;99.90;;;;;;5030934;28;20080;-75
2022/01/26 06:20:29;;;;;;;87.85;35.47;;;4.40;99.90;;;;;;5016048;28;20055;-75
2022/01/26 06:22:55;;;;;;;86.20;36.50;;;4.30;99.90;;;;;;5022628;28;20276;-74
2022/01/26 06:25:21;;;;;;;90.65;36.15;;;4.30;99.90;;;;;;5027470;28;20701;-75
2022/01/26 06:27:48;;;;;;;93.65;36.80;;;4.30;99.90;;;;;;5027191;28;20122;-74
2022/01/26 06:30:14;;;;;;;87.50;35.15;;;4.30;99.90;;;;;;5016177;28;20116;-75
2022/01/26 06:32:40;;;;;;;87.78;36.08;;;4.30;99.90;;;;;;5029639;28;20133;-75
2022/01/26 06:35:09;;;;;;;86.72;36.10;;;4.30;99.90;;;;;;5029627;28;20025;-75
2022/01/26 06:37:34;;;;;;;96.25;37.67;;;4.30;99.90;;;;;;5028022;28;20071;-75
2022/01/26 06:40:00;;;;;;;90.22;36.60;;;4.30;99.90;;;;;;5030757;28;20030;-75
2022/01/26 06:42:31;;;;;;;89.03;36.28;;;4.30;99.90;;;;;;5030156;28;20036;-75
2022/01/26 06:45:12;;;;;;;91.07;36.63;;;4.30;99.90;;;;;;5027632;28;20056;-75
2022/01/26 06:50:15;;;;;;;85.68;34.38;;;4.30;99.90;;;;;;5023802;28;20092;-75
2022/01/26 06:52:43;;;;;;;85.40;34.58;;;4.30;99.90;;;;;;5018914;28;20026;-75
2022/01/26 06:55:10;;;;;;;84.68;33.92;;;4.30;99.90;;;;;;5011858;28;20036;-75
2022/01/26 06:57:35;;;;;;;83.22;34.40;;;4.30;99.90;;;;;;5031006;28;20480;-75
2022/01/26 07:00:01;;;;;;;79.30;34.25;;;4.30;99.90;;;;;;5022790;28;20148;-75
2022/01/26 07:02:27;;;;;;;75.35;32.40;;;4.30;99.90;;;;;;5022155;28;20053;-75
2022/01/26 07:04:52;;;;;;;80.72;32.35;;;4.30;99.90;;;;;;5031576;28;20033;-75
2022/01/26 07:07:18;;;;;;;80.43;33.35;;;4.30;99.90;;;;;;5020799;28;20071;-75
2022/01/26 07:09:43;;;;;;;80.57;33.03;;;4.30;99.90;;;;;;5030301;28;20079;-76
2022/01/26 07:12:09;;;;;;;77.75;33.03;;;4.30;99.90;;;;;;5024389;28;20032;-75
2022/01/26 07:20:56;;;;;;;80.70;32.78;;;4.40;99.90;;;;;;5035889;28;20125;-75
2022/01/26 07:22:57;;;;;;;79.07;32.92;;;4.40;99.90;;;;;;5034648;28;20059;-75
2022/01/26 07:25:23;;;;;;;82.88;33.13;;;4.40;99.90;;;;;;5037515;28;20045;-75
2022/01/26 07:27:50;;;;;;;77.80;33.10;;;4.40;99.90;;;;;;5041998;28;20080;-75
2022/01/26 07:30:16;;;;;;;78.55;33.70;;;4.40;99.90;;;;;;5040879;28;20022;-75
2022/01/26 07:32:42;;;;;;;85.57;35.58;;;4.40;99.90;;;;;;5035076;28;20045;-76
2022/01/26 07:35:08;;;;;;;83.40;36.10;;;4.50;99.90;;;;;;5033171;28;20416;-75
2022/01/26 07:37:34;;;;;;;82.63;34.45;;;4.50;99.90;;;;;;5040997;28;20071;-75
2022/01/26 07:40:04;;;;;;;81.38;34.00;;;4.50;99.90;;;;;;5034423;28;20475;-75
2022/01/26 07:42:30;;;;;;;83.53;34.55;;;4.50;99.90;;;;;;5037051;28;20133;-75
2022/01/26 07:44:56;;;;;;;82.00;33.60;;;4.50;99.90;;;;;;5037906;28;20097;-75
2022/01/26 07:47:23;;;;;;;80.47;33.22;;;4.50;99.90;;;;;;5045461;28;20096;-75
2022/01/26 07:49:49;;;;;;;85.35;34.03;;;4.50;99.90;;;;;;5043464;28;20644;-76
2022/01/26 07:52:15;;;;;;;81.72;33.17;;;4.60;99.90;;;;;;5039795;28;20040;-76
2022/01/26 07:54:44;;;;;;;77.50;31.35;;;4.60;99.90;;;;;;5036093;28;20025;-75
2022/01/26 07:57:09;;;;;;;79.68;32.20;;;4.60;99.90;;;;;;5019923;28;20036;-75
2022/01/26 07:59:36;;;;;;;73.22;30.35;;;4.60;99.90;;;;;;5030554;28;20029;-75
2022/01/26 08:02:01;;;;;;;81.65;32.40;;;4.60;99.90;;;;;;5022920;28;20497;-76
2022/01/26 08:04:27;;;;;;;76.07;30.80;;;4.60;99.90;;;;;;5027129;28;20026;-75
2022/01/26 08:06:52;;;;;;;76.07;31.05;;;4.60;99.90;;;;;;5034939;28;20033;-75
2022/01/26 08:09:18;;;;;;;74.32;29.42;;;4.70;99.90;;;;;;5023743;28;20022;-75
2022/01/26 08:11:44;;;;;;;71.82;27.27;;;4.70;99.90;;;;;;5016273;28;20085;-75
2022/01/26 08:14:09;;;;;;;62.10;27.48;;;4.70;99.90;;;;;;5016646;28;20018;-75
2022/01/26 08:16:36;;;;;;;70.30;26.13;;;4.70;99.90;;;;;;5032245;28;20386;-75
2022/01/26 08:19:02;;;;;;;66.10;25.92;;;4.70;99.90;;;;;;5023797;28;20049;-75
2022/01/26 08:21:28;;;;;;;68.63;26.40;;;4.70;99.90;;;;;;5033907;28;20033;-76
2022/01/26 08:24:01;;;;;;;60.65;24.42;;;4.70;99.90;;;;;;5038115;28;20025;-75
2022/01/26 08:26:37;;;;;;;78.93;26.17;;;4.70;99.90;;;;;;5029302;28;20472;-75
2022/01/26 08:29:03;;;;;;;70.93;26.52;;;4.70;99.90;;;;;;5029594;28;20045;-76
2022/01/26 08:31:28;;;;;;;68.43;25.75;;;4.70;99.90;;;;;;5024158;28;20056;-75
2022/01/26 08:33:54;;;;;;;68.65;26.77;;;4.70;99.90;;;;;;5040413;28;20651;-75
2022/01/26 08:36:19;;;;;;;69.72;28.05;;;4.70;99.90;;;;;;5023936;28;20022;-75
2022/01/26 08:38:45;;;;;;;70.75;28.23;;;4.80;99.90;;;;;;5026414;28;20526;-75
2022/01/26 08:41:11;;;;;;;79.75;28.50;;;4.80;99.90;;;;;;5021225;28;20025;-75
2022/01/26 08:43:37;;;;;;;78.30;29.17;;;4.80;99.90;;;;;;5036566;28;20040;-76
2022/01/26 08:46:03;;;;;;;76.93;28.58;;;4.80;99.90;;;;;;5033051;28;20483;-76
2022/01/26 08:48:29;;;;;;;72.97;29.10;;;4.80;99.90;;;;;;5022944;28;20032;-76
2022/01/26 08:50:55;;;;;;;76.63;29.27;;;4.80;99.90;;;;;;5028181;28;20539;-76
2022/01/26 08:53:22;;;;;;;77.18;28.38;;;4.80;99.90;;;;;;5029649;28;20128;-76
2022/01/26 08:55:48;;;;;;;75.00;28.65;;;4.80;99.90;;;;;;5031539;28;20021;-76
2022/01/26 08:58:13;;;;;;;76.75;29.08;;;4.80;99.90;;;;;;5030456;28;20025;-75
2022/01/26 09:00:39;;;;;;;74.32;29.23;;;4.90;99.90;;;;;;5016427;28;20083;-74
2022/01/26 09:03:05;;;;;;;76.47;28.92;;;4.90;99.90;;;;;;5016154;28;20464;-74
2022/01/26 09:05:30;;;;;;;72.72;28.75;;;4.90;99.90;;;;;;5025391;28;20029;-75
2022/01/26 09:07:58;;;;;;;61.75;27.98;;;4.90;99.90;;;;;;5029070;28;20048;-74
2022/01/26 09:10:27;;;;;;;75.07;29.90;;;5.00;99.90;;;;;;5031016;28;20382;-75
2022/01/26 09:12:52;;;;;;;93.05;42.25;;;5.00;99.90;;;;;;5030648;28;20164;-75
2022/01/26 09:15:18;;;;;;;128.27;60.53;;;5.00;99.90;;;;;;5035199;28;20096;-75
2022/01/26 09:17:44;;;;;;;66.53;28.77;;;5.10;99.90;;;;;;5030772;28;20025;-75
2022/01/26 09:20:11;;;;;;;72.47;29.40;;;5.10;99.90;;;;;;5031185;28;20025;-75
2022/01/26 09:22:37;;;;;;;66.57;28.02;;;5.10;99.90;;;;;;5030043;28;20009;-75
2022/01/26 09:25:03;;;;;;;64.10;27.27;;;5.10;99.90;;;;;;5028901;28;20024;-74
2022/01/26 09:27:28;;;;;;;57.67;26.58;;;5.20;99.90;;;;;;5030041;28;20179;-75
2022/01/26 09:29:54;;;;;;;57.50;26.30;;;5.20;99.90;;;;;;5030601;28;20151;-74
2022/01/26 09:32:21;;;;;;;57.15;26.48;;;5.20;99.90;;;;;;5032151;28;20638;-75
2022/01/26 09:34:46;;;;;;;52.38;25.90;;;5.20;99.90;;;;;;5031510;28;20414;-75
2022/01/26 09:37:16;;;;;;;61.30;27.02;;;5.30;99.90;;;;;;5031334;28;20033;-75
2022/01/26 09:39:43;;;;;;;56.78;25.75;;;5.30;99.90;;;;;;5031604;28;20465;-74
2022/01/26 09:42:09;;;;;;;55.38;25.85;;;5.30;99.90;;;;;;5030750;28;20017;-75
2022/01/26 09:44:36;;;;;;;60.13;25.75;;;5.30;99.90;;;;;;5031301;28;20032;-74
2022/01/26 09:47:03;;;;;;;55.38;25.45;;;5.30;99.90;;;;;;5031212;28;20025;-75
2022/01/26 09:49:32;;;;;;;56.28;26.30;;;5.40;99.90;;;;;;5032950;28;20041;-75
2022/01/26 09:52:13;;;;;;;60.28;27.42;;;5.40;99.90;;;;;;5032842;28;20026;-74
2022/01/26 09:54:40;;;;;;;57.53;25.73;;;5.40;99.90;;;;;;5046800;28;20024;-75
2022/01/26 09:57:05;;;;;;;60.97;26.52;;;5.40;99.90;;;;;;5051559;28;20025;-75
2022/01/26 09:59:32;;;;;;;57.28;26.05;;;5.50;99.90;;;;;;5036341;28;20034;-75
2022/01/26 10:01:58;;;;;;;58.60;28.10;;;5.50;99.90;;;;;;5014082;28;20079;-75
2022/01/26 10:04:38;;;;;;;59.38;26.70;;;5.50;99.90;;;;;;5011054;28;20037;-75
2022/01/26 10:07:17;;;;;;;57.00;24.58;;;5.60;99.90;;;;;;5011418;28;20387;-75
2022/01/26 10:09:59;;;;;;;54.03;24.83;;;5.60;99.90;;;;;;5011248;28;20072;-75
2022/01/26 10:18:07;;;;;;;;;;;5.70;99.90;;;;;;5031479;28;20578;-75
2022/01/26 10:21:01;;;;;;;40.65;20.77;;;5.70;99.90;;;;;;5012550;28;20302;-75
2022/01/26 10:23:35;;;;;;;45.20;22.05;;;5.80;99.90;;;;;;5030362;28;20095;-75
2022/01/26 10:26:14;;;;;;;46.80;21.08;;;5.80;99.90;;;;;;5030338;28;20042;-75
2022/01/26 10:28:48;;;;;;;44.78;22.10;;;5.80;99.90;;;;;;5030512;28;20509;-75
2022/01/26 10:31:18;;;;;;;43.33;21.65;;;5.90;99.90;;;;;;5030670;28;20418;-75
2022/01/26 10:33:59;;;;;;;44.10;20.92;;;5.90;99.90;;;;;;5030450;28;20022;-75
2022/01/26 10:36:46;;;;;;;44.00;21.65;;;5.90;99.90;;;;;;5030484;28;20025;-75
2022/01/26 10:39:15;;;;;;;48.95;22.50;;;6.00;99.90;;;;;;5029899;28;20030;-75
2022/01/26 10:41:43;;;;;;;43.22;21.00;;;6.00;99.90;;;;;;5033952;28;20021;-75
2022/01/26 10:44:09;;;;;;;47.63;21.25;;;6.10;99.90;;;;;;5030625;28;20033;-74
2022/01/26 10:46:45;;;;;;;51.47;22.05;;;6.10;99.90;;;;;;5030420;28;20041;-75
2022/01/26 10:54:23;;;;;;;37.50;19.13;;;6.20;99.90;;;;;;5052830;28;20478;-75
2022/01/26 10:56:50;;;;;;;44.08;19.67;;;6.30;99.90;;;;;;5054353;28;20028;-74
2022/01/26 10:59:16;;;;;;;39.17;19.63;;;6.30;99.90;;;;;;5054547;28;20387;-74
2022/01/26 11:01:42;;;;;;;42.50;19.35;;;6.40;99.90;;;;;;5049445;28;20054;-74
2022/01/26 11:04:08;;;;;;;42.08;20.50;;;6.40;99.90;;;;;;5025034;28;20018;-74
2022/01/26 11:06:36;;;;;;;41.90;19.15;;;6.40;99.90;;;;;;5021823;28;20030;-74
2022/01/26 11:09:10;;;;;;;42.40;18.70;;;6.50;99.90;;;;;;5022312;28;20037;-74
2022/01/26 11:11:35;;;;;;;37.78;18.35;;;6.50;99.90;;;;;;5029440;28;20017;-75
2022/01/26 11:14:15;;;;;;;38.42;17.98;;;6.60;99.90;;;;;;5033443;28;20514;-74
2022/01/26 11:17:08;;;;;;;40.50;18.83;;;6.60;99.90;;;;;;5030440;28;20517;-74
2022/01/26 11:19:41;;;;;;;39.85;19.33;;;6.60;99.90;;;;;;5032647;28;20487;-74
2022/01/26 11:22:08;;;;;;;36.28;18.55;;;6.70;99.90;;;;;;5033748;28;20025;-74
2022/01/26 11:24:43;;;;;;;32.15;16.52;;;6.70;99.90;;;;;;5034100;28;20033;-74
2022/01/26 11:27:08;;;;;;;36.08;17.98;;;6.70;99.90;;;;;;5029201;28;20029;-74
2022/01/26 11:29:37;;;;;;;37.08;16.90;;;6.70;99.90;;;;;;5032662;28;20652;-75
2022/01/26 11:32:17;;;;;;;40.22;18.75;;;6.70;99.90;;;;;;5036475;28;20083;-74
2022/01/26 11:34:43;;;;;;;37.58;17.17;;;6.80;99.90;;;;;;5032786;28;20013;-74
2022/01/26 11:37:12;;;;;;;35.38;17.90;;;6.80;99.90;;;;;;5031421;28;20079;-73
2022/01/26 11:45:14;;;;;;;36.28;16.73;;;6.80;99.90;;;;;;5028140;28;20435;-74
2022/01/26 11:48:01;;;;;;;35.90;16.52;;;6.90;99.90;;;;;;5032361;28;20042;-74
2022/01/26 11:50:28;;;;;;;38.45;17.13;;;6.90;99.90;;;;;;5033187;28;20033;-74
2022/01/26 11:53:16;;;;;;;34.03;17.35;;;6.90;99.90;;;;;;5033663;28;20029;-74
2022/01/26 11:55:44;;;;;;;37.15;16.67;;;6.90;99.90;;;;;;5033279;28;20035;-74
2022/01/26 11:58:30;;;;;;;35.55;16.88;;;7.00;99.90;;;;;;5033107;28;20494;-74
2022/01/26 12:04:16;;;;;;;40.45;17.95;;;7.00;99.90;;;;;;5033184;28;20029;-74
2022/01/26 12:06:49;;;;;;;32.42;16.75;;;7.00;99.90;;;;;;5032631;28;20656;-74
2022/01/26 12:09:15;;;;;;;34.03;16.98;;;7.10;99.90;;;;;;5033142;28;20037;-74
2022/01/26 12:11:41;;;;;;;33.17;16.85;;;7.10;99.90;;;;;;5033024;28;20021;-74
2022/01/26 12:14:13;;;;;;;32.28;17.05;;;7.10;99.90;;;;;;5033085;28;20028;-75
2022/01/26 12:16:44;;;;;;;34.85;16.60;;;7.10;99.90;;;;;;5034014;28;20029;-75
2022/01/26 12:36:02;;;;;;;33.90;16.15;;;7.10;99.90;;;;;;5033192;28;20045;-75
2022/01/26 12:38:33;;;;;;;35.03;16.65;;;7.20;99.90;;;;;;5027517;28;20045;-75
2022/01/26 12:43:44;;;;;;;39.65;16.95;;;7.20;99.90;;;;;;5033294;28;20033;-75
2022/01/26 12:46:13;;;;;;;32.15;15.70;;;7.10;99.90;;;;;;5032708;28;20053;-74
2022/01/26 12:48:42;;;;;;;34.70;16.80;;;7.20;99.90;;;;;;5031434;28;20060;-73
2022/01/26 12:51:09;;;;;;;31.85;15.82;;;7.20;99.90;;;;;;5033705;28;20604;-73
2022/01/26 12:53:36;;;;;;;34.08;16.95;;;7.20;99.90;;;;;;5032495;28;20017;-73
2022/01/26 12:56:08;;;;;;;30.85;16.20;;;7.20;99.90;;;;;;5016237;28;20041;-73
2022/01/26 12:58:36;;;;;;;30.88;15.18;;;7.20;99.90;;;;;;5014512;28;20029;-73
2022/01/26 13:01:09;;;;;;;35.97;16.35;;;7.20;99.90;;;;;;5030913;28;20067;-73
2022/01/26 13:03:37;;;;;;;36.40;17.33;;;7.20;99.90;;;;;;5051427;28;20094;-74
2022/01/26 13:06:05;;;;;;;33.63;17.05;;;7.20;99.90;;;;;;5051808;28;20025;-73
2022/01/26 13:09:01;;;;;;;41.42;18.38;;;7.20;99.90;;;;;;5051595;28;20029;-73
2022/01/26 13:11:33;;;;;;;36.83;16.10;;;7.20;99.90;;;;;;5031707;28;20375;-73
2022/01/26 13:14:10;;;;;;;34.47;16.23;;;7.20;99.90;;;;;;5051755;28;20021;-73
2022/01/26 13:16:38;;;;;;;31.38;15.65;;;7.20;99.90;;;;;;5051730;28;20033;-73
2022/01/26 13:29:49;;;;;;;35.97;16.83;;;7.20;99.90;;;;;;5030898;28;20121;-73
2022/01/26 13:33:16;;;;;;;32.85;16.15;;;7.20;99.90;;;;;;5030442;28;20107;-74
2022/01/26 13:37:58;;;;;;;39.30;17.85;;;7.20;99.90;;;;;;5031830;28;20034;-73
2022/01/26 13:46:29;;;;;;;37.22;17.58;;;7.20;99.90;;;;;;5022135;28;20052;-73
2022/01/26 13:51:22;;;;;;;38.80;16.77;;;7.20;99.90;;;;;;5031664;28;20397;-73
2022/01/26 13:53:55;;;;;;;41.22;17.83;;;7.20;99.90;;;;;;5031461;28;20044;-73
2022/01/26 13:56:58;;;;;;;41.92;18.00;;;7.20;99.90;;;;;;5031655;28;20028;-73
2022/01/26 14:01:37;;;;;;;40.55;19.02;;;7.20;99.90;;;;;;5049100;28;20156;-73
2022/01/26 14:04:05;;;;;;;44.45;19.55;;;7.20;99.90;;;;;;5051259;28;20701;-73
2022/01/26 14:06:31;;;;;;;44.55;19.30;;;7.20;99.90;;;;;;5050050;28;20048;-72
2022/01/26 14:08:56;;;;;;;40.65;19.10;;;7.20;99.90;;;;;;5050800;28;20029;-73
2022/01/26 14:11:22;;;;;;;44.00;19.77;;;7.10;99.90;;;;;;5050865;28;20021;-73
2022/01/26 14:13:49;;;;;;;45.17;19.30;;;7.10;99.90;;;;;;5050811;28;20029;-73
2022/01/26 14:16:17;;;;;;;48.03;19.17;;;7.10;99.90;;;;;;5050562;28;20383;-73
2022/01/26 14:18:48;;;;;;;41.72;19.40;;;7.10;99.90;;;;;;5051451;28;20029;-73
2022/01/26 14:21:29;;;;;;;43.33;19.20;;;7.10;99.90;;;;;;5051308;28;20509;-73
2022/01/26 14:26:26;;;;;;;47.05;20.13;;;7.10;99.90;;;;;;5050858;28;20043;-73
2022/01/26 14:28:52;;;;;;;41.92;19.55;;;7.20;99.90;;;;;;5038790;28;20034;-72
2022/01/26 14:36:51;;;;;;;40.53;19.35;;;7.10;99.90;;;;;;5010840;28;20722;-73
2022/01/26 15:09:30;;;;;;;42.38;19.80;;;7.10;99.90;;;;;;5012738;28;20057;-73
2022/01/26 15:29:56;;;;;;;67.03;30.05;;;6.90;99.90;;;;;;5010941;28;20129;-72
2022/01/26 15:33:51;;;;;;;74.05;31.40;;;6.60;99.90;;;;;;5011629;28;20095;-73
2022/01/26 15:52:14;;;;;;;72.32;30.75;;;6.50;99.90;;;;;;5013927;28;20074;-73
2022/01/26 15:58:29;;;;;;;79.07;32.03;;;6.50;99.90;;;;;;5035418;28;20079;-74
2022/01/26 16:06:03;;;;;;;76.20;32.25;;;6.40;99.90;;;;;;5033252;28;20351;-73
2022/01/26 16:16:51;;;;;;;78.05;31.98;;;6.30;99.90;;;;;;5053287;28;20047;-73
2022/01/26 17:11:08;;;;;;;78.07;30.23;;;6.20;99.90;;;;;;5010373;28;20405;-72
2022/01/26 18:13:09;;;;;;;65.00;28.80;;;5.90;99.90;;;;;;4898484;29;20076;-73
2022/01/26 18:15:41;;;;;;;60.08;28.70;;;5.90;99.90;;;;;;4922129;28;20023;-73
2022/01/26 18:50:25;;;;;;;71.35;33.38;;;5.90;99.90;;;;;;5009283;28;20044;-74
2022/01/26 18:52:50;;;;;;;75.68;33.22;;;5.90;99.90;;;;;;5017800;28;20456;-74
2022/01/26 18:55:16;;;;;;;69.05;32.65;;;5.90;99.90;;;;;;5010494;28;20025;-73
2022/01/26 18:57:42;;;;;;;69.18;32.25;;;5.90;99.90;;;;;;5009698;28;20025;-73